메인 페이지
METAR-TAF:

METAR-TAF

공항 :

호니아라 국제공항

호니아라, 과달카날 섬, 솔로몬 제도

위도: 09-25S, 경도: 160-03E, 고도: 8m

현재 날씨관측

예보는 36분 전, 15:00시(UTC)에 발표되었습니다.
무풍
온도 24°C
습도 100%
기압 1008 hPa
시정 10km 이상
고도 1500ft 상공 구름 조금
고도 1600ft 상공 구름 조금, 적란운.
고도 30000ft 상공 구름 보통

METAR: AGGH 241500Z 00000KT 9999 FEW015 FEW016CB SCT300 24/24 Q1008

시각: 02:36 (15:36 UTC)

예보

예보는 4 시간 6분 전, 11:30시(UTC)에 발표되었습니다.
예보 대상 시간: 24일 12시부터 25일 12시까지 (UTC)
여러 방향의 바람 3kt
시정 10km 이상
고도 1500ft 상공 구름 조금
24일 2300시부터 (UTC)
10kt
시정: 1008m
고도 1900ft 상공 구름 보통
고도 3000ft 상공 구름 보통

TAF: AGGH 241130Z 2412/2512 VRB03KT 9999 FEW015 FM242300 09010KT 9999 SCT019 SCT030 T 25 23 22 26 Q 1009 1007 1006 1008

4,000개 이상의 공항 관측 자료 및 예보 (METAR 및 TAF 보고).

지도상에서 검색 가능한 기상관측소가 노란 점과 빨간 점으로 표시되어 있습니다.

기상관측소 명을 보려면 표시 위로 마우스를 이동하세요.

날씨 관측과 예보를 보려면 클릭하세요.

지도 변경 : 확대하려면 엑스 표시가 있는 녹색 버튼, 축소하려면 빼기 표시가 있는 녹색 버튼, 다음 페이지의 지도를 보려면 녹색 화살표를 클릭하세요.


METAR-TAF: